createdAt,value
2017-11-17T00:01:21.313Z,64.40
2017-11-17T00:03:48.724Z,64.40
2017-11-17T00:06:16.231Z,64.60
2017-11-17T00:08:43.670Z,64.50
2017-11-17T00:11:11.101Z,64.80
2017-11-17T00:13:39.523Z,64.50
2017-11-17T00:16:07.028Z,65.10
2017-11-17T00:18:34.485Z,65.00
2017-11-17T00:21:01.913Z,64.60
2017-11-17T00:23:29.365Z,64.40
2017-11-17T00:25:57.585Z,64.70
2017-11-17T00:28:25.080Z,64.70
2017-11-17T00:30:52.601Z,64.90
2017-11-17T00:33:20.043Z,64.60
2017-11-17T00:35:47.472Z,64.40
2017-11-17T00:38:14.926Z,64.50
2017-11-17T00:40:43.901Z,65.00
2017-11-17T00:43:11.462Z,65.00
2017-11-17T00:45:38.966Z,65.10
2017-11-17T00:48:06.433Z,65.50
2017-11-17T00:50:34.012Z,64.50
2017-11-17T00:53:02.213Z,64.70
2017-11-17T00:55:29.665Z,64.60
2017-11-17T00:57:57.228Z,64.50
2017-11-17T01:00:24.705Z,64.50
2017-11-17T01:02:52.164Z,64.50
2017-11-17T01:05:19.596Z,64.50
2017-11-17T01:07:47.097Z,64.40
2017-11-17T01:10:14.615Z,64.50
2017-11-17T01:12:42.117Z,64.30
2017-11-17T01:15:10.337Z,64.30
2017-11-17T01:17:37.801Z,64.30
2017-11-17T01:20:05.249Z,64.50
2017-11-17T01:22:32.779Z,64.50
2017-11-17T01:25:00.212Z,64.40
2017-11-17T01:27:27.652Z,64.50
2017-11-17T01:29:55.109Z,64.50
2017-11-17T01:32:22.540Z,64.60
2017-11-17T01:34:50.105Z,63.90
2017-11-17T01:37:17.565Z,63.80
2017-11-17T01:39:45.801Z,64.20
2017-11-17T01:42:13.483Z,64.10
2017-11-17T01:44:41.696Z,63.80
2017-11-17T01:47:09.170Z,63.80
2017-11-17T01:49:36.625Z,64.10
2017-11-17T01:52:04.853Z,64.30
2017-11-17T01:54:32.307Z,64.30
2017-11-17T01:56:59.835Z,64.20
2017-11-17T01:59:27.277Z,64.50
2017-11-17T02:01:54.817Z,64.30
2017-11-17T02:04:22.252Z,64.50
2017-11-17T02:06:49.729Z,64.30
2017-11-17T02:09:17.973Z,64.40
2017-11-17T02:11:45.431Z,63.80
2017-11-17T02:14:12.873Z,63.70
2017-11-17T02:16:40.405Z,63.50
2017-11-17T02:19:07.844Z,64.30
2017-11-17T02:21:35.281Z,63.60
2017-11-17T02:24:02.711Z,63.50
2017-11-17T02:26:30.157Z,63.60
2017-11-17T02:28:57.591Z,63.60
2017-11-17T02:31:25.037Z,63.60
2017-11-17T02:33:52.494Z,63.40
2017-11-17T02:36:20.045Z,62.90
2017-11-17T02:38:47.597Z,62.50
2017-11-17T02:41:15.074Z,63.00
2017-11-17T02:43:43.317Z,62.70
2017-11-17T02:46:10.769Z,62.70
2017-11-17T02:48:38.211Z,62.90
2017-11-17T02:51:06.446Z,63.80
2017-11-17T02:53:33.878Z,63.80
2017-11-17T02:56:01.326Z,63.50
2017-11-17T02:58:28.760Z,62.80
2017-11-17T03:00:56.207Z,63.20
2017-11-17T03:03:23.637Z,63.40
2017-11-17T03:05:51.111Z,63.40
2017-11-17T03:08:18.551Z,63.60
2017-11-17T03:10:45.990Z,63.40
2017-11-17T03:13:13.433Z,63.40
2017-11-17T03:15:40.865Z,63.20
2017-11-17T03:18:08.306Z,63.40
2017-11-17T03:20:35.751Z,63.40
2017-11-17T03:23:03.191Z,63.50
2017-11-17T03:25:30.621Z,63.60
2017-11-17T03:27:58.065Z,63.90
2017-11-17T03:30:25.507Z,64.10
2017-11-17T03:32:52.962Z,64.00
2017-11-17T03:35:20.405Z,64.10
2017-11-17T03:37:47.882Z,64.00
2017-11-17T03:40:16.118Z,63.90
2017-11-17T03:42:43.652Z,63.90
2017-11-17T03:45:11.102Z,64.10
2017-11-17T03:47:38.533Z,63.70
2017-11-17T03:50:05.989Z,63.30
2017-11-17T03:52:33.541Z,63.60
2017-11-17T03:55:00.985Z,63.50
2017-11-17T03:57:28.421Z,63.60
2017-11-17T03:59:55.953Z,63.00
2017-11-17T04:02:23.397Z,63.00
2017-11-17T04:04:50.844Z,62.90
2017-11-17T04:07:18.472Z,63.00
2017-11-17T04:09:45.904Z,62.90
2017-11-17T04:12:13.385Z,63.00
2017-11-17T04:14:40.832Z,62.90
2017-11-17T04:17:08.261Z,62.70
2017-11-17T04:19:35.769Z,62.50
2017-11-17T04:22:03.269Z,62.80
2017-11-17T04:24:31.479Z,63.20
2017-11-17T04:26:58.988Z,63.00
2017-11-17T04:29:27.207Z,62.50
2017-11-17T04:31:54.641Z,62.40
2017-11-17T04:34:22.093Z,62.50
2017-11-17T04:36:49.546Z,62.30
2017-11-17T04:39:16.976Z,62.90
2017-11-17T04:41:44.437Z,62.70
2017-11-17T04:44:11.891Z,62.50
2017-11-17T04:46:39.321Z,63.20
2017-11-17T04:49:06.751Z,63.10
2017-11-17T04:51:34.273Z,63.10
2017-11-17T04:54:01.699Z,62.80
2017-11-17T04:56:29.193Z,62.40
2017-11-17T04:58:56.729Z,63.00
2017-11-17T05:01:24.167Z,63.30
2017-11-17T05:03:51.621Z,63.10
2017-11-17T05:06:19.056Z,63.20
2017-11-17T05:08:46.597Z,63.20
2017-11-17T05:11:14.134Z,62.80
2017-11-17T05:13:41.571Z,62.90
2017-11-17T05:16:09.009Z,62.40
2017-11-17T05:18:36.445Z,62.70
2017-11-17T05:21:03.885Z,62.30
2017-11-17T05:23:31.319Z,62.50
2017-11-17T05:25:58.777Z,62.40
2017-11-17T05:28:26.249Z,62.50
2017-11-17T05:30:53.720Z,62.60
2017-11-17T05:33:21.909Z,63.40
2017-11-17T05:35:49.345Z,63.40
2017-11-17T05:38:16.781Z,63.50
2017-11-17T05:40:44.252Z,63.20
2017-11-17T05:43:11.681Z,63.20
2017-11-17T05:45:39.111Z,64.70
2017-11-17T05:48:06.566Z,63.80
2017-11-17T05:50:34.067Z,64.00
2017-11-17T05:53:02.265Z,64.40
2017-11-17T05:55:29.729Z,63.70
2017-11-17T05:57:57.171Z,64.10
2017-11-17T06:00:24.764Z,64.10
2017-11-17T06:02:52.254Z,64.10
2017-11-17T06:05:19.748Z,64.20
2017-11-17T06:07:47.285Z,64.40
2017-11-17T06:10:14.720Z,65.30
2017-11-17T06:12:42.933Z,64.60
2017-11-17T06:15:10.418Z,64.60
2017-11-17T06:17:37.858Z,64.50
2017-11-17T06:20:06.069Z,64.60
2017-11-17T06:22:33.506Z,64.70
2017-11-17T06:25:00.937Z,64.60
2017-11-17T06:27:29.161Z,64.30
2017-11-17T06:29:56.628Z,64.30
2017-11-17T06:32:24.866Z,64.30
2017-11-17T06:34:53.808Z,64.30
2017-11-17T06:37:21.237Z,64.30
2017-11-17T06:39:48.684Z,64.20
2017-11-17T06:42:16.214Z,64.60
2017-11-17T06:44:44.401Z,65.60
2017-11-17T06:47:11.926Z,65.60
2017-11-17T06:49:39.420Z,65.50
2017-11-17T06:52:07.631Z,65.00
2017-11-17T06:54:35.833Z,65.10
2017-11-17T06:57:03.265Z,65.10
2017-11-17T06:59:30.725Z,65.50
2017-11-17T07:01:58.165Z,65.50
2017-11-17T07:04:25.613Z,65.50
2017-11-17T07:06:54.554Z,66.00
2017-11-17T07:09:22.014Z,65.90
2017-11-17T07:11:49.453Z,65.20
2017-11-17T07:14:16.898Z,65.00
2017-11-17T07:16:44.388Z,64.30
2017-11-17T07:19:12.629Z,64.40
2017-11-17T07:21:40.066Z,64.40
2017-11-17T07:24:07.901Z,64.00
2017-11-17T07:26:35.348Z,63.90
2017-11-17T07:29:02.830Z,64.00
2017-11-17T07:31:31.089Z,64.60
2017-11-17T07:33:58.503Z,64.60
2017-11-17T07:36:25.956Z,64.50
2017-11-17T07:38:53.404Z,64.30
2017-11-17T07:41:20.880Z,63.90
2017-11-17T07:43:48.317Z,64.20
2017-11-17T07:46:15.818Z,64.00
2017-11-17T07:48:43.265Z,64.30
2017-11-17T07:51:10.710Z,63.80
2017-11-17T07:53:38.166Z,63.10
2017-11-17T07:56:05.618Z,63.60
2017-11-17T07:58:33.895Z,62.90
2017-11-17T08:01:01.402Z,63.70
2017-11-17T08:03:28.834Z,63.10
2017-11-17T08:05:56.299Z,66.00
2017-11-17T08:08:23.761Z,61.80
2017-11-17T08:10:51.969Z,61.10
2017-11-17T08:13:19.441Z,60.40
2017-11-17T08:15:46.963Z,60.00
2017-11-17T08:18:26.401Z,59.80
2017-11-17T08:20:55.401Z,59.30
2017-11-17T08:23:23.614Z,58.60
2017-11-17T08:25:51.068Z,58.70
2017-11-17T08:28:18.505Z,58.60
2017-11-17T08:30:45.937Z,58.80
2017-11-17T08:33:13.420Z,58.60
2017-11-17T08:35:40.844Z,58.70
2017-11-17T08:38:08.289Z,59.30
2017-11-17T08:40:35.755Z,59.30
2017-11-17T08:43:03.198Z,59.30
2017-11-17T08:45:31.396Z,60.00
2017-11-17T08:47:58.829Z,60.00
2017-11-17T08:50:26.261Z,59.80
2017-11-17T08:52:53.785Z,59.60
2017-11-17T08:55:21.993Z,60.30
2017-11-17T08:57:49.445Z,59.70
2017-11-17T09:00:16.905Z,60.20
2017-11-17T09:02:44.533Z,59.50
2017-11-17T09:05:12.015Z,59.60
2017-11-17T09:07:39.549Z,59.70
2017-11-17T09:10:07.704Z,59.70
2017-11-17T09:12:35.257Z,58.80
2017-11-17T09:15:02.772Z,58.90
2017-11-17T09:17:30.345Z,58.70
2017-11-17T09:19:57.782Z,58.70
2017-11-17T09:22:25.242Z,58.50
2017-11-17T09:24:52.701Z,58.00
2017-11-17T09:27:20.909Z,57.50
2017-11-17T09:29:48.349Z,57.50
2017-11-17T09:32:15.941Z,57.90
2017-11-17T09:34:44.201Z,57.50
2017-11-17T09:37:11.649Z,57.50
2017-11-17T09:39:39.179Z,57.50
2017-11-17T09:42:06.713Z,57.70
2017-11-17T09:44:34.162Z,57.50
2017-11-17T09:47:01.593Z,57.80
2017-11-17T09:49:29.039Z,58.20
2017-11-17T09:51:56.472Z,57.50
2017-11-17T09:54:23.922Z,57.90
2017-11-17T09:56:51.377Z,58.00
2017-11-17T09:59:18.812Z,57.50
2017-11-17T10:01:46.350Z,57.50
2017-11-17T10:04:13.803Z,57.80
2017-11-17T10:06:42.027Z,56.80
2017-11-17T10:09:09.466Z,57.40
2017-11-17T10:11:36.897Z,57.50
2017-11-17T10:14:04.447Z,57.70
2017-11-17T10:16:31.913Z,58.10
2017-11-17T10:18:59.412Z,57.70
2017-11-17T10:21:27.597Z,57.10
2017-11-17T10:23:55.064Z,57.10
2017-11-17T10:26:22.537Z,56.70
2017-11-17T10:28:50.737Z,56.90
2017-11-17T10:31:18.234Z,56.90
2017-11-17T10:33:45.670Z,57.50
2017-11-17T10:36:13.105Z,57.50
2017-11-17T10:38:40.624Z,58.60
2017-11-17T10:41:08.066Z,58.80
2017-11-17T10:43:35.625Z,58.30
2017-11-17T10:46:03.049Z,58.50
2017-11-17T10:48:30.472Z,58.60
2017-11-17T10:50:57.926Z,57.90
2017-11-17T10:53:25.353Z,58.20
2017-11-17T10:55:52.859Z,57.80
2017-11-17T10:58:20.309Z,58.20
2017-11-17T11:00:47.764Z,58.00
2017-11-17T11:03:16.005Z,58.10
2017-11-17T11:05:43.465Z,58.10
2017-11-17T11:08:10.882Z,58.20
2017-11-17T11:10:38.319Z,58.10
2017-11-17T11:13:05.758Z,57.70
2017-11-17T11:15:33.218Z,57.50
2017-11-17T11:18:00.653Z,56.80
2017-11-17T11:20:28.125Z,56.60
2017-11-17T11:22:56.322Z,56.20
2017-11-17T11:25:23.768Z,55.60
2017-11-17T11:27:51.214Z,55.40
2017-11-17T11:30:18.658Z,55.90
2017-11-17T11:32:46.160Z,56.20
2017-11-17T11:35:13.627Z,56.40
2017-11-17T11:37:42.629Z,56.60
2017-11-17T11:40:10.057Z,56.60
2017-11-17T11:42:37.508Z,56.60
2017-11-17T11:45:04.950Z,57.10
2017-11-17T11:47:32.511Z,56.90
2017-11-17T11:49:59.975Z,56.50
2017-11-17T11:52:27.453Z,56.80
2017-11-17T11:54:55.694Z,57.50
2017-11-17T11:57:23.892Z,57.60
2017-11-17T11:59:51.382Z,57.60
2017-11-17T12:02:18.825Z,58.40
2017-11-17T12:04:46.270Z,58.10
2017-11-17T12:07:13.817Z,59.10
2017-11-17T12:09:41.241Z,59.60
2017-11-17T12:12:08.687Z,58.10
2017-11-17T12:14:36.126Z,59.20
2017-11-17T12:17:03.597Z,59.00
2017-11-17T12:19:31.794Z,58.60
2017-11-17T12:21:59.235Z,58.50
2017-11-17T12:24:26.683Z,58.80
2017-11-17T12:26:54.106Z,59.00
2017-11-17T12:29:21.648Z,59.40
2017-11-17T12:31:49.839Z,60.30
2017-11-17T12:34:17.282Z,60.40
2017-11-17T12:36:44.725Z,59.70
2017-11-17T12:39:12.176Z,59.60
2017-11-17T12:41:39.612Z,59.20
2017-11-17T12:44:07.059Z,60.20
2017-11-17T12:46:34.571Z,60.20
2017-11-17T12:49:02.049Z,60.40
2017-11-17T12:51:29.616Z,60.80
2017-11-17T12:53:57.064Z,60.90
2017-11-17T12:56:24.554Z,60.30
2017-11-17T12:58:52.027Z,61.40
2017-11-17T13:01:19.466Z,61.70
2017-11-17T13:03:46.920Z,61.50
2017-11-17T13:06:14.360Z,61.20
2017-11-17T13:08:42.103Z,61.10
2017-11-17T13:11:09.539Z,61.80
2017-11-17T13:13:37.036Z,62.70
2017-11-17T13:16:05.244Z,62.60
2017-11-17T13:18:32.736Z,62.50
2017-11-17T13:21:00.963Z,62.60
2017-11-17T13:23:28.420Z,62.60
2017-11-17T13:25:55.882Z,62.60
2017-11-17T13:28:24.082Z,63.40
2017-11-17T13:30:51.520Z,63.40
2017-11-17T13:33:18.970Z,65.60
2017-11-17T13:35:46.419Z,65.70
2017-11-17T13:38:13.850Z,66.20
2017-11-17T13:40:41.385Z,66.60
2017-11-17T13:43:08.921Z,67.00
2017-11-17T13:45:36.369Z,67.80
2017-11-17T13:48:03.881Z,66.70
2017-11-17T13:50:31.393Z,66.10
2017-11-17T13:52:58.826Z,66.20
2017-11-17T13:55:26.344Z,66.90
2017-11-17T13:57:53.807Z,66.80
2017-11-17T14:00:21.250Z,67.10
2017-11-17T14:02:48.681Z,68.30
2017-11-17T14:05:16.294Z,68.40
2017-11-17T14:07:44.525Z,68.00
2017-11-17T14:10:11.991Z,68.00
2017-11-17T14:12:39.521Z,69.00
2017-11-17T14:15:07.067Z,68.50
2017-11-17T14:17:34.508Z,69.30
2017-11-17T14:20:01.941Z,69.80
2017-11-17T14:22:29.414Z,69.60
2017-11-17T14:24:57.625Z,69.60
2017-11-17T14:27:25.082Z,69.60
2017-11-17T14:29:52.508Z,69.40
2017-11-17T14:32:19.959Z,70.60
2017-11-17T14:34:47.389Z,69.90
2017-11-17T14:37:14.835Z,70.90
2017-11-17T14:39:42.260Z,72.00
2017-11-17T14:42:09.729Z,71.80
2017-11-17T14:44:37.176Z,71.20
2017-11-17T14:47:04.645Z,71.60
2017-11-17T14:49:32.085Z,71.30
2017-11-17T14:51:59.521Z,72.00
2017-11-17T14:54:26.968Z,71.80
2017-11-17T14:56:54.500Z,70.80
2017-11-17T14:59:21.971Z,71.60
2017-11-17T15:01:49.476Z,71.30
2017-11-17T15:04:16.909Z,71.20
2017-11-17T15:06:44.366Z,71.20
2017-11-17T15:09:11.821Z,71.10
2017-11-17T15:11:39.265Z,72.40
2017-11-17T15:14:06.780Z,71.40
2017-11-17T15:16:34.329Z,70.50
2017-11-17T15:19:01.763Z,70.40
2017-11-17T15:21:29.229Z,70.00
2017-11-17T15:23:56.686Z,71.10
2017-11-17T15:26:24.142Z,69.80
2017-11-17T15:28:51.551Z,70.30
2017-11-17T15:31:19.002Z,70.40
2017-11-17T15:33:46.445Z,70.30
2017-11-17T15:36:13.893Z,70.00
2017-11-17T15:38:41.342Z,69.80
2017-11-17T15:41:08.783Z,70.50
2017-11-17T15:43:36.229Z,71.00
2017-11-17T15:46:03.761Z,71.40
2017-11-17T15:48:31.209Z,71.70
2017-11-17T15:50:58.853Z,71.70
2017-11-17T15:53:26.350Z,71.20
2017-11-17T15:55:53.786Z,71.70
2017-11-17T15:58:21.253Z,71.30
2017-11-17T16:00:48.704Z,71.00
2017-11-17T16:03:16.172Z,71.50
2017-11-17T16:05:43.618Z,71.60
2017-11-17T16:08:11.052Z,70.90
2017-11-17T16:10:38.611Z,71.20
2017-11-17T16:13:06.057Z,70.00
2017-11-17T16:15:33.558Z,70.30
2017-11-17T16:18:00.986Z,70.30
2017-11-17T16:20:28.529Z,70.00
2017-11-17T16:22:55.965Z,69.70
2017-11-17T16:25:23.573Z,70.20
2017-11-17T16:27:51.013Z,70.80
2017-11-17T16:30:18.464Z,71.20
2017-11-17T16:32:46.737Z,72.60
2017-11-17T16:35:14.939Z,71.80
2017-11-17T16:37:42.454Z,71.10
2017-11-17T16:40:09.904Z,71.40
2017-11-17T16:42:37.363Z,72.10
2017-11-17T16:45:04.814Z,72.50
2017-11-17T16:47:32.274Z,72.20
2017-11-17T16:49:59.713Z,71.90
2017-11-17T16:52:27.222Z,72.40
2017-11-17T16:54:54.691Z,73.00
2017-11-17T16:57:22.164Z,73.00
2017-11-17T16:59:50.386Z,72.00
2017-11-17T17:02:17.850Z,71.90
2017-11-17T17:04:45.299Z,72.50
2017-11-17T17:07:12.839Z,72.00
2017-11-17T17:09:40.261Z,71.90
2017-11-17T17:12:07.817Z,72.30
2017-11-17T17:14:35.301Z,72.00
2017-11-17T17:17:02.902Z,72.40
2017-11-17T17:19:30.335Z,72.10
2017-11-17T17:21:57.774Z,71.00
2017-11-17T17:24:25.234Z,71.20
2017-11-17T17:26:52.805Z,71.40
2017-11-17T17:29:20.237Z,71.30
2017-11-17T17:31:47.782Z,71.70
2017-11-17T17:34:15.215Z,71.80
2017-11-17T17:36:42.666Z,71.60
2017-11-17T17:39:10.134Z,71.10
2017-11-17T17:41:37.686Z,71.00
2017-11-17T17:44:05.942Z,70.60
2017-11-17T17:46:33.395Z,70.60
2017-11-17T17:49:02.122Z,69.50
2017-11-17T17:51:29.574Z,69.50
2017-11-17T17:53:57.006Z,69.70
2017-11-17T17:56:24.450Z,70.00
2017-11-17T17:58:51.898Z,71.10
2017-11-17T18:01:19.379Z,71.60
2017-11-17T18:03:47.582Z,72.10
2017-11-17T18:06:15.009Z,72.10
2017-11-17T18:08:42.451Z,71.80
2017-11-17T18:11:09.922Z,72.20
2017-11-17T18:13:37.386Z,72.20
2017-11-17T18:16:04.938Z,71.50
2017-11-17T18:18:32.489Z,72.00
2017-11-17T18:21:00.730Z,72.50
2017-11-17T18:23:28.222Z,71.90
2017-11-17T18:25:56.409Z,71.00
2017-11-17T18:28:23.902Z,71.70
2017-11-17T18:30:51.321Z,70.30
2017-11-17T18:33:18.824Z,70.50
2017-11-17T18:35:46.246Z,70.50
2017-11-17T18:38:13.659Z,71.10
2017-11-17T18:40:41.101Z,70.60
2017-11-17T18:43:08.633Z,70.80
2017-11-17T18:45:36.109Z,70.40
2017-11-17T18:48:03.565Z,70.00
2017-11-17T18:50:30.998Z,70.70
2017-11-17T18:52:58.510Z,69.90
2017-11-17T18:55:26.929Z,71.00
2017-11-17T18:57:54.421Z,71.00
2017-11-17T19:00:21.932Z,71.20
2017-11-17T19:02:50.105Z,72.40
2017-11-17T19:05:17.570Z,72.40
2017-11-17T19:07:44.982Z,72.50
2017-11-17T19:10:12.500Z,72.00
2017-11-17T19:12:39.912Z,72.40
2017-11-17T19:15:07.392Z,72.30
2017-11-17T19:17:34.765Z,72.50
2017-11-17T19:20:02.218Z,72.60
2017-11-17T19:22:29.838Z,72.50
2017-11-17T19:24:57.272Z,72.50
2017-11-17T19:27:24.769Z,72.90
2017-11-17T19:29:52.982Z,72.90
2017-11-17T19:32:21.516Z,73.60
2017-11-17T19:34:49.786Z,72.20
2017-11-17T19:37:17.326Z,72.20
2017-11-17T19:39:45.537Z,71.30
2017-11-17T19:42:13.150Z,71.30
2017-11-17T19:44:40.672Z,71.40
2017-11-17T19:47:08.853Z,71.10
2017-11-17T19:49:36.302Z,71.00
2017-11-17T19:52:03.885Z,70.40
2017-11-17T19:54:31.411Z,70.60
2017-11-17T19:56:58.879Z,70.40
2017-11-17T19:59:26.273Z,70.10
2017-11-17T20:01:53.728Z,69.90
2017-11-17T20:04:21.158Z,70.20
2017-11-17T20:06:48.696Z,69.70
2017-11-17T20:09:16.188Z,69.60
2017-11-17T20:11:43.881Z,69.30
2017-11-17T20:14:11.409Z,69.10
2017-11-17T20:16:39.667Z,69.00
2017-11-17T20:19:07.853Z,69.90
2017-11-17T20:21:35.339Z,69.30
2017-11-17T20:24:02.853Z,69.80
2017-11-17T20:26:30.460Z,69.40
2017-11-17T20:28:57.907Z,69.70
2017-11-17T20:31:26.185Z,69.90
2017-11-17T20:33:54.396Z,69.40
2017-11-17T20:36:21.892Z,69.40
2017-11-17T20:38:49.353Z,69.40
2017-11-17T20:41:16.847Z,68.90
2017-11-17T20:43:44.305Z,69.80
2017-11-17T20:46:12.573Z,70.20
2017-11-17T20:48:40.810Z,70.00
2017-11-17T20:51:08.247Z,70.00
2017-11-17T20:53:35.739Z,71.40
2017-11-17T20:56:03.219Z,70.10
2017-11-17T20:58:30.719Z,69.60
2017-11-17T21:00:58.153Z,69.30
2017-11-17T21:03:25.634Z,69.00
2017-11-17T21:05:53.073Z,68.80
2017-11-17T21:08:20.528Z,68.70
2017-11-17T21:10:47.966Z,68.60
2017-11-17T21:13:15.430Z,68.60
2017-11-17T21:15:42.924Z,68.50
2017-11-17T21:18:10.353Z,68.60
2017-11-17T21:20:37.811Z,68.00
2017-11-17T21:23:05.264Z,68.90
2017-11-17T21:25:32.710Z,69.20
2017-11-17T21:28:00.135Z,69.70
2017-11-17T21:30:27.585Z,70.30
2017-11-17T21:32:55.058Z,70.40
2017-11-17T21:35:22.499Z,70.00
2017-11-17T21:37:50.126Z,70.20
2017-11-17T21:40:17.607Z,69.70
2017-11-17T21:42:45.077Z,69.40
2017-11-17T21:45:12.532Z,69.00
2017-11-17T21:47:40.005Z,69.30
2017-11-17T21:50:07.441Z,69.20
2017-11-17T21:52:34.883Z,69.00
2017-11-17T21:55:02.430Z,69.60
2017-11-17T21:57:29.875Z,69.90
2017-11-17T21:59:57.419Z,70.40
2017-11-17T22:02:25.077Z,71.30
2017-11-17T22:04:52.534Z,72.00
2017-11-17T22:07:19.962Z,72.70
2017-11-17T22:09:47.406Z,73.30
2017-11-17T22:12:14.912Z,72.80
2017-11-17T22:14:42.371Z,72.70
2017-11-17T22:17:09.810Z,72.40
2017-11-17T22:19:37.252Z,71.90
2017-11-17T22:22:04.686Z,71.70
2017-11-17T22:24:32.135Z,71.30
2017-11-17T22:26:59.613Z,71.00
2017-11-17T22:29:28.222Z,70.70
2017-11-17T22:31:56.430Z,71.00
2017-11-17T22:34:23.893Z,71.00
2017-11-17T22:36:51.324Z,71.80
2017-11-17T22:39:18.796Z,71.40
2017-11-17T22:41:47.007Z,72.60
2017-11-17T22:44:14.905Z,72.60
2017-11-17T22:46:42.391Z,72.70
2017-11-17T22:49:09.882Z,72.40
2017-11-17T22:51:37.323Z,71.80
2017-11-17T22:54:04.774Z,72.10
2017-11-17T22:56:32.217Z,71.10
2017-11-17T22:59:00.044Z,71.20
2017-11-17T23:01:27.481Z,70.60
2017-11-17T23:03:54.937Z,70.10
2017-11-17T23:06:22.385Z,70.40
2017-11-17T23:08:49.905Z,70.10
2017-11-17T23:11:17.348Z,70.30
2017-11-17T23:13:44.788Z,69.90
2017-11-17T23:16:12.238Z,70.00
2017-11-17T23:18:39.692Z,69.50
2017-11-17T23:21:07.151Z,69.40
2017-11-17T23:23:34.589Z,68.90
2017-11-17T23:26:02.041Z,68.90
2017-11-17T23:28:29.491Z,69.20
2017-11-17T23:30:56.926Z,69.30
2017-11-17T23:33:24.370Z,69.60
2017-11-17T23:35:51.826Z,70.60
2017-11-17T23:38:19.338Z,71.30
2017-11-17T23:40:46.794Z,71.70
2017-11-17T23:43:14.253Z,71.90
2017-11-17T23:45:42.461Z,73.00
2017-11-17T23:48:09.894Z,73.00
2017-11-17T23:50:37.327Z,73.10
2017-11-17T23:53:04.778Z,73.50
2017-11-17T23:55:32.227Z,73.70
